createdAt,value
2022-08-26T00:00:39.677Z,21.92
2022-08-26T00:05:44.537Z,21.89
2022-08-26T00:10:49.663Z,21.77
2022-08-26T00:15:54.685Z,21.77
2022-08-26T00:20:58.144Z,21.58
2022-08-26T00:26:02.499Z,21.58
2022-08-26T00:31:07.368Z,21.62
2022-08-26T00:36:19.977Z,21.77
2022-08-26T00:41:23.955Z,21.79
2022-08-26T00:46:32.781Z,21.85
2022-08-26T00:51:43.921Z,21.74
2022-08-26T00:56:53.029Z,21.52
2022-08-26T01:01:58.249Z,21.31
2022-08-26T01:07:02.211Z,21.37
2022-08-26T01:12:06.897Z,21.36
2022-08-26T01:17:12.010Z,21.39
2022-08-26T01:22:19.398Z,21.43
2022-08-26T01:27:27.467Z,21.38
2022-08-26T01:32:36.834Z,21.18
2022-08-26T01:37:42.716Z,20.98
2022-08-26T01:42:49.248Z,20.80
2022-08-26T01:47:56.907Z,20.73
2022-08-26T01:53:05.990Z,20.65
2022-08-26T01:58:15.014Z,20.64
2022-08-26T02:03:21.771Z,20.49
2022-08-26T02:08:29.546Z,20.28
2022-08-26T02:13:39.631Z,20.12
2022-08-26T02:18:45.154Z,20.26
2022-08-26T02:23:52.175Z,20.49
2022-08-26T02:29:01.342Z,20.39
2022-08-26T02:34:11.774Z,20.46
2022-08-26T02:39:19.558Z,20.35
2022-08-26T02:44:27.562Z,20.26
2022-08-26T02:49:31.032Z,20.13
2022-08-26T02:54:34.391Z,20.15
2022-08-26T02:59:40.132Z,20.22
2022-08-26T03:04:58.074Z,20.43
2022-08-26T03:10:08.799Z,20.60
2022-08-26T03:15:17.883Z,20.58
2022-08-26T03:20:21.562Z,20.66
2022-08-26T03:25:26.313Z,20.66
2022-08-26T03:30:45.768Z,20.59
2022-08-26T03:35:50.602Z,20.56
2022-08-26T03:40:54.372Z,20.63
2022-08-26T03:45:59.227Z,20.66
2022-08-26T03:51:03.259Z,20.68
2022-08-26T03:56:07.940Z,20.53
2022-08-26T04:01:13.678Z,20.56
2022-08-26T04:06:19.945Z,20.35
2022-08-26T04:11:26.885Z,20.18
2022-08-26T04:16:32.549Z,20.03
2022-08-26T04:21:38.367Z,20.15
2022-08-26T04:26:43.879Z,20.40
2022-08-26T04:31:49.356Z,20.60
2022-08-26T04:36:53.284Z,20.67
2022-08-26T04:41:57.826Z,20.66
2022-08-26T04:47:03.493Z,20.67
2022-08-26T04:52:07.214Z,20.83
2022-08-26T04:57:11.225Z,20.93
2022-08-26T05:02:16.112Z,20.99
2022-08-26T05:07:19.621Z,21.18
2022-08-26T05:12:23.405Z,21.38
2022-08-26T05:17:28.805Z,21.51
2022-08-26T05:22:32.364Z,21.61
2022-08-26T05:27:35.772Z,21.84
2022-08-26T05:32:42.013Z,21.92
2022-08-26T05:37:45.592Z,22.03
2022-08-26T05:42:49.050Z,22.29
2022-08-26T05:47:54.188Z,22.65
2022-08-26T05:52:59.218Z,22.89
2022-08-26T05:58:02.876Z,23.10
2022-08-26T06:03:08.474Z,23.27
2022-08-26T06:08:15.262Z,23.49
2022-08-26T06:13:25.660Z,23.55
2022-08-26T06:18:35.512Z,23.81
2022-08-26T06:23:56.530Z,23.90
2022-08-26T06:29:00.205Z,23.91
2022-08-26T06:34:10.761Z,24.09
2022-08-26T06:39:17.115Z,24.36
2022-08-26T06:44:21.570Z,24.78
2022-08-26T06:49:27.785Z,24.94
2022-08-26T06:54:31.952Z,25.24
2022-08-26T06:59:35.490Z,25.45
2022-08-26T07:04:40.967Z,25.66
2022-08-26T07:09:45.965Z,25.92
2022-08-26T07:14:50.675Z,26.32
2022-08-26T07:19:55.661Z,26.67
2022-08-26T07:24:59.156Z,26.98
2022-08-26T07:30:03.117Z,27.32
2022-08-26T07:35:09.762Z,27.64
2022-08-26T07:40:13.330Z,27.88
2022-08-26T07:45:21.313Z,27.87
2022-08-26T07:50:49.355Z,27.77
2022-08-26T07:55:51.620Z,28.14
2022-08-26T08:00:55.632Z,28.25
2022-08-26T08:06:01.314Z,28.72
2022-08-26T08:11:04.911Z,28.51
2022-08-26T08:16:12.526Z,27.99
2022-08-26T08:21:21.842Z,27.83
2022-08-26T08:26:27.640Z,27.94
2022-08-26T08:36:59.738Z,27.71
2022-08-26T08:42:38.111Z,27.40
2022-08-26T08:47:45.799Z,27.46
2022-08-26T08:52:57.106Z,27.10
2022-08-26T08:58:05.166Z,27.12
2022-08-26T09:03:17.098Z,27.24
2022-08-26T09:08:28.402Z,27.27
2022-08-26T09:13:32.048Z,27.14
2022-08-26T09:18:56.511Z,26.93
2022-08-26T09:24:01.693Z,26.71
2022-08-26T09:29:08.895Z,26.46
2022-08-26T09:34:18.066Z,26.45
2022-08-26T09:39:38.042Z,26.35
2022-08-26T09:44:56.771Z,26.50
2022-08-26T09:50:09.526Z,26.40
2022-08-26T09:55:22.966Z,26.60
2022-08-26T10:00:32.873Z,26.71
2022-08-26T10:05:46.464Z,26.74
2022-08-26T10:10:53.082Z,26.70
2022-08-26T10:16:15.961Z,26.87
2022-08-26T10:21:23.945Z,27.10
2022-08-26T10:26:36.848Z,27.18
2022-08-26T10:31:43.189Z,27.36
2022-08-26T10:37:14.568Z,27.30
2022-08-26T10:42:29.217Z,27.32
2022-08-26T10:47:39.684Z,27.37
2022-08-26T10:52:59.185Z,27.39
2022-08-26T10:58:26.143Z,27.40
2022-08-26T11:03:40.200Z,27.28
2022-08-26T11:08:47.953Z,27.32
2022-08-26T11:14:04.629Z,27.26
2022-08-26T11:19:09.901Z,27.28
2022-08-26T11:24:42.623Z,27.28
2022-08-26T11:30:02.689Z,27.20
2022-08-26T11:35:08.080Z,27.24
2022-08-26T11:40:15.387Z,27.34
2022-08-26T11:45:25.468Z,27.44
2022-08-26T11:50:30.101Z,27.55
2022-08-26T11:55:35.081Z,27.66
2022-08-26T12:00:52.449Z,27.57
2022-08-26T12:05:57.389Z,27.62
2022-08-26T12:11:07.046Z,27.67
2022-08-26T12:16:12.404Z,27.64
2022-08-26T12:21:24.304Z,27.83
2022-08-26T12:26:30.509Z,27.92
2022-08-26T12:31:37.484Z,27.91
2022-08-26T12:36:46.748Z,27.88
2022-08-26T12:41:52.722Z,27.99
2022-08-26T12:47:03.836Z,27.88
2022-08-26T12:52:09.115Z,27.65
2022-08-26T12:57:13.310Z,27.60
2022-08-26T13:02:39.912Z,27.40
2022-08-26T13:07:44.461Z,27.28
2022-08-26T13:12:48.242Z,27.20
2022-08-26T13:17:53.414Z,27.14
2022-08-26T13:22:59.396Z,26.97
2022-08-26T13:28:02.964Z,26.92
2022-08-26T13:33:08.807Z,26.97
2022-08-26T13:38:22.361Z,26.97
2022-08-26T13:43:37.227Z,26.97
2022-08-26T13:48:42.026Z,26.91
2022-08-26T13:53:48.552Z,26.91
2022-08-26T13:58:52.263Z,26.90
2022-08-26T14:03:57.235Z,26.83
2022-08-26T14:09:00.798Z,26.81
2022-08-26T14:14:04.245Z,26.78
2022-08-26T14:19:10.980Z,26.68
2022-08-26T14:24:14.424Z,26.70
2022-08-26T14:29:17.913Z,26.72
2022-08-26T14:34:22.777Z,26.71
2022-08-26T14:39:26.486Z,26.73
2022-08-26T14:44:32.668Z,26.80
2022-08-26T14:49:37.756Z,26.79
2022-08-26T14:54:41.250Z,26.80
2022-08-26T14:59:50.164Z,26.82
2022-08-26T15:04:55.177Z,26.81
2022-08-26T15:09:58.612Z,26.88
2022-08-26T15:15:02.132Z,26.88
2022-08-26T15:20:10.266Z,26.88
2022-08-26T15:25:13.861Z,26.87
2022-08-26T15:30:18.388Z,26.87
2022-08-26T15:35:23.588Z,26.82
2022-08-26T15:40:27.906Z,26.75
2022-08-26T15:45:33.886Z,26.63
2022-08-26T15:50:49.871Z,26.55
2022-08-26T15:55:56.312Z,26.47
2022-08-26T16:01:00.194Z,26.39
2022-08-26T16:06:05.329Z,26.33
2022-08-26T16:11:09.361Z,26.23
2022-08-26T16:16:13.641Z,26.06
2022-08-26T16:21:20.938Z,25.92
2022-08-26T16:26:27.567Z,25.84
2022-08-26T16:31:31.201Z,25.78
2022-08-26T16:36:36.522Z,25.66
2022-08-26T16:41:40.248Z,25.52
2022-08-26T16:46:43.767Z,25.42
2022-08-26T16:51:48.588Z,25.37
2022-08-26T16:56:52.031Z,25.24
2022-08-26T17:01:56.090Z,25.19
2022-08-26T17:07:01.350Z,25.14
2022-08-26T17:12:05.438Z,25.09
2022-08-26T17:17:09.237Z,25.07
2022-08-26T17:22:14.523Z,25.01
2022-08-26T17:27:17.987Z,24.91
2022-08-26T17:32:21.474Z,24.89
2022-08-26T17:37:26.381Z,24.88
2022-08-26T17:42:31.501Z,24.87
2022-08-26T17:47:35.919Z,24.88
2022-08-26T17:52:42.651Z,24.87
2022-08-26T17:57:53.539Z,24.89
2022-08-26T18:02:58.740Z,24.86
2022-08-26T18:08:03.887Z,24.86
2022-08-26T18:13:07.285Z,24.84
2022-08-26T18:18:11.173Z,24.75
2022-08-26T18:23:16.031Z,24.62
2022-08-26T18:28:19.730Z,24.55
2022-08-26T18:33:23.234Z,24.44
2022-08-26T18:38:28.457Z,24.31
2022-08-26T18:43:31.899Z,24.26
2022-08-26T18:48:36.820Z,24.17
2022-08-26T18:53:42.123Z,24.11
2022-08-26T18:58:45.811Z,24.11
2022-08-26T19:03:51.331Z,24.12
2022-08-26T19:08:58.199Z,24.11
2022-08-26T19:14:03.128Z,24.04
2022-08-26T19:19:07.537Z,24.05
2022-08-26T19:24:15.695Z,23.90
2022-08-26T19:29:19.239Z,23.82
2022-08-26T19:34:22.738Z,23.82
2022-08-26T19:39:28.146Z,23.86
2022-08-26T19:44:49.154Z,23.82
2022-08-26T19:49:55.481Z,23.73
2022-08-26T19:55:01.608Z,23.70
2022-08-26T20:00:10.427Z,23.61
2022-08-26T20:05:15.118Z,23.61
2022-08-26T20:10:22.658Z,23.58
2022-08-26T20:15:26.438Z,23.68
2022-08-26T20:20:49.226Z,23.70
2022-08-26T20:25:57.563Z,23.64
2022-08-26T20:31:02.121Z,23.62
2022-08-26T20:36:07.306Z,23.59
2022-08-26T20:41:12.516Z,23.52
2022-08-26T20:46:21.999Z,23.51
2022-08-26T20:51:28.260Z,23.45
2022-08-26T20:56:33.148Z,23.45
2022-08-26T21:01:42.028Z,23.42
2022-08-26T21:06:52.323Z,23.50
2022-08-26T21:11:57.811Z,23.48
2022-08-26T21:17:01.292Z,23.46
2022-08-26T21:22:05.561Z,23.44
2022-08-26T21:27:10.670Z,23.49
2022-08-26T21:32:15.759Z,23.49
2022-08-26T21:37:19.319Z,23.50
2022-08-26T21:42:25.416Z,23.59
2022-08-26T21:47:29.190Z,23.60
2022-08-26T21:52:32.901Z,23.66
2022-08-26T21:57:37.786Z,23.63
2022-08-26T22:02:41.398Z,23.63
2022-08-26T22:07:44.980Z,23.51
2022-08-26T22:12:49.839Z,23.43
2022-08-26T22:17:53.379Z,23.43
2022-08-26T22:22:57.146Z,23.49
2022-08-26T22:28:02.042Z,23.36
2022-08-26T22:33:07.289Z,23.23
2022-08-26T22:38:11.194Z,23.22
2022-08-26T22:43:16.545Z,23.26
2022-08-26T22:48:22.110Z,23.38
2022-08-26T22:53:25.919Z,23.42
2022-08-26T22:58:31.107Z,23.44
2022-08-26T23:03:35.510Z,23.40
2022-08-26T23:08:39.769Z,23.45
2022-08-26T23:13:44.945Z,23.46
2022-08-26T23:18:48.418Z,23.51
2022-08-26T23:23:52.101Z,23.43
2022-08-26T23:28:57.335Z,23.32
2022-08-26T23:34:18.378Z,23.29
2022-08-26T23:39:22.373Z,23.30
2022-08-26T23:44:27.198Z,23.39
2022-08-26T23:49:30.690Z,23.41
2022-08-26T23:54:34.547Z,23.36
2022-08-26T23:59:40.320Z,23.27
